Wetterdaten: Woche 12.04.10 - 18.04.10 (KW15)
Datum Zeit Temperatur Luftfeuchte Luftdruck Niederschlag Windrichtung Sonnenschein Solar Wind
12.04.2010 00:00 1,8 C 89 % 1017,0 hPa 0,0 l/m NO 0,00 h 0 W/m 14,1 km/h (3 Bft)
12.04.2010 01:00 1,6 C 89 % 1016,8 hPa 0,0 l/m NO 0,00 h 0 W/m 15,0 km/h (3 Bft)
12.04.2010 02:00 1,3 C 91 % 1016,4 hPa 0,0 l/m NO 0,00 h 0 W/m 14,9 km/h (3 Bft)
12.04.2010 03:00 1,0 C 92 % 1016,0 hPa 0,0 l/m NO 0,00 h 0 W/m 11,8 km/h (2 Bft)
12.04.2010 04:00 1,1 C 93 % 1015,5 hPa 0,0 l/m NO 0,00 h 0 W/m 13,0 km/h (3 Bft)
12.04.2010 05:00 1,8 C 92 % 1015,1 hPa 0,0 l/m NO 0,00 h 0 W/m 13,8 km/h (3 Bft)
12.04.2010 06:00 2,2 C 90 % 1014,9 hPa 0,0 l/m O-NO 0,00 h 8 W/m 15,2 km/h (3 Bft)
12.04.2010 07:00 2,2 C 90 % 1014,7 hPa 0,0 l/m O-NO 0,00 h 31 W/m 16,0 km/h (3 Bft)
12.04.2010 08:00 2,7 C 87 % 1014,8 hPa 0,0 l/m O-NO 0,00 h 76 W/m 16,0 km/h (3 Bft)
12.04.2010 09:00 3,4 C 82 % 1014,8 hPa 0,0 l/m NO 0,00 h 130 W/m 17,0 km/h (3 Bft)
12.04.2010 10:00 3,9 C 80 % 1014,8 hPa 0,0 l/m O-NO 0,00 h 163 W/m 16,4 km/h (3 Bft)
12.04.2010 11:00 4,6 C 76 % 1014,5 hPa 0,0 l/m O-NO 0,00 h 211 W/m 16,4 km/h (3 Bft)
12.04.2010 12:00 5,6 C 72 % 1014,1 hPa 0,0 l/m O-NO 0,00 h 331 W/m 17,0 km/h (3 Bft)
12.04.2010 13:00 7,0 C 65 % 1013,6 hPa 0,0 l/m NO 0,42 h 536 W/m 22,4 km/h (4 Bft)
12.04.2010 14:00 7,2 C 65 % 1013,4 hPa 0,0 l/m NO 0,17 h 403 W/m 22,0 km/h (4 Bft)
12.04.2010 15:00 7,9 C 61 % 1012,9 hPa 0,0 l/m NO 0,58 h 544 W/m 26,4 km/h (4 Bft)
12.04.2010 16:00 8,1 C 58 % 1012,6 hPa 0,0 l/m NO 0,33 h 344 W/m 23,3 km/h (4 Bft)
12.04.2010 17:00 8,1 C 57 % 1012,7 hPa 0,0 l/m NO 0,17 h 190 W/m 24,0 km/h (4 Bft)
12.04.2010 18:00 7,3 C 60 % 1012,9 hPa 0,0 l/m O-NO 0,00 h 93 W/m 18,6 km/h (3 Bft)
12.04.2010 19:00 6,5 C 64 % 1013,0 hPa 0,0 l/m O-NO 0,08 h 26 W/m 19,6 km/h (3 Bft)
12.04.2010 20:00 6,0 C 67 % 1013,3 hPa 0,0 l/m N-NO 0,00 h 5 W/m 19,3 km/h (3 Bft)
12.04.2010 21:00 5,1 C 71 % 1013,6 hPa 0,0 l/m NO 0,00 h 0 W/m 14,4 km/h (3 Bft)
12.04.2010 22:00 4,7 C 77 % 1013,4 hPa 0,0 l/m NO 0,00 h 0 W/m 17,3 km/h (3 Bft)
12.04.2010 23:00 3,7 C 82 % 1013,1 hPa 0,0 l/m N-NO 0,00 h 0 W/m 13,4 km/h (3 Bft)
13.04.2010 00:00 2,9 C 85 % 1013,0 hPa 0,0 l/m NO 0,00 h 0 W/m 11,8 km/h (2 Bft)
13.04.2010 01:00 2,3 C 86 % 1012,8 hPa 0,0 l/m N-NO 0,00 h 0 W/m 10,2 km/h (2 Bft)
13.04.2010 02:00 1,3 C 90 % 1012,7 hPa 0,0 l/m N 0,00 h 0 W/m 5,3 km/h (1 Bft)
13.04.2010 03:00 0,6 C 92 % 1012,6 hPa 0,0 l/m N 0,00 h 0 W/m 5,1 km/h (1 Bft)
13.04.2010 04:00 0,2 C 92 % 1012,6 hPa 0,0 l/m N 0,00 h 0 W/m 4,9 km/h (1 Bft)
13.04.2010 05:00 0,2 C 93 % 1012,7 hPa 0,0 l/m N 0,00 h 0 W/m 7,5 km/h (2 Bft)
13.04.2010 06:00 0,1 C 94 % 1012,8 hPa 0,0 l/m N-NO 0,08 h 13 W/m 7,6 km/h (2 Bft)
13.04.2010 07:00 0,9 C 94 % 1013,0 hPa 0,0 l/m NO 0,00 h 54 W/m 9,4 km/h (2 Bft)
13.04.2010 08:00 1,5 C 94 % 1013,2 hPa 0,0 l/m NO 0,00 h 67 W/m 9,9 km/h (2 Bft)
13.04.2010 09:00 2,4 C 92 % 1013,3 hPa 0,0 l/m NO 0,00 h 89 W/m 10,6 km/h (2 Bft)
13.04.2010 10:00 3,9 C 87 % 1013,3 hPa 0,0 l/m NO 0,17 h 297 W/m 11,4 km/h (2 Bft)
13.04.2010 11:00 6,8 C 72 % 1013,3 hPa 0,0 l/m NO 0,33 h 436 W/m 15,3 km/h (3 Bft)
13.04.2010 12:00 9,0 C 61 % 1012,9 hPa 0,0 l/m NO 0,83 h 723 W/m 18,6 km/h (3 Bft)
13.04.2010 13:00 9,4 C 59 % 1012,8 hPa 0,0 l/m O-NO 0,58 h 607 W/m 18,6 km/h (3 Bft)
13.04.2010 14:00 10,0 C 58 % 1012,7 hPa 0,0 l/m NO 0,67 h 726 W/m 17,7 km/h (3 Bft)
13.04.2010 15:00 10,4 C 54 % 1012,4 hPa 0,0 l/m NO 0,58 h 511 W/m 18,6 km/h (3 Bft)
13.04.2010 16:00 10,3 C 54 % 1012,3 hPa 0,0 l/m NO 0,17 h 255 W/m 18,0 km/h (3 Bft)
13.04.2010 17:00 10,5 C 51 % 1012,0 hPa 0,0 l/m O-NO 0,67 h 271 W/m 14,9 km/h (3 Bft)
13.04.2010 18:00 10,2 C 51 % 1012,0 hPa 0,0 l/m N-NO 0,33 h 120 W/m 13,3 km/h (3 Bft)
13.04.2010 19:00 9,4 C 57 % 1012,1 hPa 0,0 l/m N-NO 0,00 h 40 W/m 12,5 km/h (3 Bft)
13.04.2010 20:00 7,5 C 66 % 1012,4 hPa 0,0 l/m NO 0,00 h 5 W/m 7,1 km/h (2 Bft)
13.04.2010 21:00 5,5 C 75 % 1012,8 hPa 0,0 l/m N-NW 0,00 h 0 W/m 4,9 km/h (1 Bft)
13.04.2010 22:00 4,6 C 78 % 1012,9 hPa 0,0 l/m N-NW 0,00 h 0 W/m 4,7 km/h (1 Bft)
13.04.2010 23:00 4,5 C 79 % 1012,7 hPa 0,0 l/m N-NW 0,00 h 0 W/m 6,0 km/h (2 Bft)
14.04.2010 00:00 5,3 C 79 % 1012,7 hPa 0,0 l/m N-NW 0,00 h 0 W/m 6,8 km/h (2 Bft)
14.04.2010 01:00 5,4 C 82 % 1012,6 hPa 0,0 l/m N-NW 0,00 h 0 W/m 4,1 km/h (1 Bft)
14.04.2010 02:00 5,0 C 84 % 1012,3 hPa 0,0 l/m N 0,00 h 0 W/m 0,9 km/h (0 Bft)
14.04.2010 03:00 4,6 C 87 % 1012,1 hPa 0,0 l/m N-NW 0,00 h 0 W/m 3,3 km/h (1 Bft)
14.04.2010 04:00 3,5 C 88 % 1012,0 hPa 0,0 l/m N-NW 0,00 h 0 W/m 1,1 km/h (0 Bft)
14.04.2010 05:00 3,3 C 89 % 1012,0 hPa 0,0 l/m N 0,00 h 0 W/m 0,0 km/h (0 Bft)
14.04.2010 06:00 3,5 C 91 % 1012,0 hPa 0,2 l/m S-SW 0,00 h 0 W/m 1,6 km/h (1 Bft)
14.04.2010 07:00 4,1 C 94 % 1012,0 hPa 0,6 l/m N 0,00 h 13 W/m 0,4 km/h (0 Bft)
14.04.2010 08:00 4,3 C 95 % 1012,3 hPa 0,6 l/m W-NW 0,00 h 27 W/m 5,9 km/h (2 Bft)
14.04.2010 09:00 4,0 C 93 % 1012,5 hPa 0,4 l/m NW 0,00 h 39 W/m 11,8 km/h (2 Bft)
14.04.2010 10:00 3,9 C 94 % 1012,4 hPa 0,2 l/m W-NW 0,00 h 93 W/m 11,7 km/h (2 Bft)
14.04.2010 11:00 4,4 C 94 % 1012,6 hPa 0,2 l/m SW 0,00 h 57 W/m 4,8 km/h (1 Bft)
14.04.2010 12:00 4,7 C 95 % 1012,6 hPa 5,8 l/m SW 0,00 h 63 W/m 6,9 km/h (2 Bft)
14.04.2010 13:00 5,2 C 96 % 1012,6 hPa 0,8 l/m S-SW 0,00 h 104 W/m 8,6 km/h (2 Bft)
14.04.2010 14:00 5,6 C 95 % 1012,9 hPa 0,4 l/m W-SW 0,00 h 170 W/m 9,4 km/h (2 Bft)
14.04.2010 15:00 6,9 C 94 % 1012,6 hPa 0,0 l/m SW 0,00 h 249 W/m 7,6 km/h (2 Bft)
14.04.2010 16:00 7,0 C 92 % 1012,6 hPa 1,0 l/m W-SW 0,00 h 83 W/m 2,5 km/h (1 Bft)
14.04.2010 17:00 6,2 C 93 % 1013,0 hPa 1,8 l/m N 0,00 h 50 W/m 8,0 km/h (2 Bft)
14.04.2010 18:00 5,6 C 95 % 1013,2 hPa 0,6 l/m N 0,00 h 36 W/m 5,3 km/h (1 Bft)
14.04.2010 19:00 5,4 C 94 % 1013,6 hPa 0,0 l/m N 0,00 h 13 W/m 8,2 km/h (2 Bft)
14.04.2010 20:00 4,8 C 93 % 1014,0 hPa 0,2 l/m O-NO 0,00 h 0 W/m 12,0 km/h (2 Bft)
14.04.2010 21:00 4,3 C 93 % 1014,4 hPa 0,0 l/m SO 0,00 h 0 W/m 7,6 km/h (2 Bft)
14.04.2010 22:00 3,8 C 94 % 1014,4 hPa 0,0 l/m N 0,00 h 0 W/m 5,1 km/h (1 Bft)
14.04.2010 23:00 3,5 C 95 % 1014,5 hPa 0,0 l/m N 0,00 h 0 W/m 2,5 km/h (1 Bft)
15.04.2010 00:00 3,4 C 96 % 1014,3 hPa 0,0 l/m N 0,00 h 0 W/m 3,1 km/h (1 Bft)
15.04.2010 01:00 3,5 C 97 % 1014,1 hPa 0,0 l/m N 0,00 h 0 W/m 2,3 km/h (1 Bft)
15.04.2010 02:00 3,5 C 97 % 1014,1 hPa 0,4 l/m N 0,00 h 0 W/m 1,5 km/h (1 Bft)
15.04.2010 03:00 3,3 C 97 % 1014,0 hPa 0,0 l/m N 0,00 h 0 W/m 1,1 km/h (0 Bft)
15.04.2010 04:00 3,0 C 97 % 1014,0 hPa 0,0 l/m N 0,00 h 0 W/m 0,7 km/h (0 Bft)
15.04.2010 05:00 2,8 C 98 % 1014,0 hPa 0,0 l/m N 0,00 h 0 W/m 0,8 km/h (0 Bft)
15.04.2010 06:00 3,2 C 98 % 1014,0 hPa 0,0 l/m N 0,00 h 6 W/m 0,4 km/h (0 Bft)
15.04.2010 07:00 3,4 C 97 % 1014,4 hPa 0,0 l/m N-NO 0,00 h 29 W/m 1,3 km/h (1 Bft)
15.04.2010 08:00 4,0 C 96 % 1014,7 hPa 0,0 l/m NO 0,00 h 91 W/m 5,5 km/h (1 Bft)
15.04.2010 09:00 4,8 C 93 % 1014,8 hPa 0,0 l/m NO 0,00 h 187 W/m 6,7 km/h (2 Bft)
15.04.2010 10:00 6,4 C 87 % 1015,0 hPa 0,0 l/m N-NO 0,50 h 349 W/m 9,9 km/h (2 Bft)
15.04.2010 11:00 6,7 C 85 % 1015,3 hPa 0,0 l/m NO 0,00 h 244 W/m 13,0 km/h (3 Bft)
15.04.2010 12:00 7,3 C 81 % 1015,4 hPa 0,0 l/m O-NO 0,17 h 345 W/m 15,8 km/h (3 Bft)
15.04.2010 13:00 8,1 C 75 % 1015,3 hPa 0,0 l/m NO 0,00 h 272 W/m 12,8 km/h (3 Bft)
15.04.2010 14:00 9,0 C 70 % 1015,2 hPa 0,2 l/m O-NO 0,58 h 516 W/m 13,7 km/h (3 Bft)
15.04.2010 15:00 9,5 C 68 % 1014,9 hPa 0,0 l/m NO 0,25 h 370 W/m 14,6 km/h (3 Bft)
15.04.2010 16:00 10,2 C 61 % 1014,5 hPa 0,0 l/m NO 0,92 h 487 W/m 15,2 km/h (3 Bft)
15.04.2010 17:00 10,2 C 58 % 1014,4 hPa 0,0 l/m O-NO 0,83 h 301 W/m 14,4 km/h (3 Bft)
15.04.2010 18:00 10,0 C 60 % 1014,6 hPa 0,0 l/m O-NO 0,50 h 146 W/m 12,6 km/h (3 Bft)
15.04.2010 19:00 9,1 C 67 % 1014,6 hPa 0,0 l/m O-SO 0,00 h 40 W/m 8,6 km/h (2 Bft)
15.04.2010 20:00 8,0 C 73 % 1014,9 hPa 0,0 l/m O-SO 0,00 h 6 W/m 3,1 km/h (1 Bft)
15.04.2010 21:00 5,7 C 83 % 1015,6 hPa 0,0 l/m N 0,00 h 0 W/m 1,3 km/h (1 Bft)
15.04.2010 22:00 4,3 C 89 % 1016,0 hPa 0,0 l/m N 0,00 h 0 W/m 1,1 km/h (0 Bft)
15.04.2010 23:00 3,8 C 91 % 1016,3 hPa 0,0 l/m N 0,00 h 0 W/m 3,6 km/h (1 Bft)
16.04.2010 00:00 4,0 C 92 % 1016,2 hPa 0,0 l/m NW 0,00 h 0 W/m 3,2 km/h (1 Bft)
16.04.2010 01:00 3,8 C 94 % 1016,1 hPa 0,0 l/m NW 0,00 h 0 W/m 4,1 km/h (1 Bft)
16.04.2010 02:00 3,6 C 95 % 1016,0 hPa 0,0 l/m NW 0,00 h 0 W/m 5,1 km/h (1 Bft)
16.04.2010 03:00 2,9 C 96 % 1015,9 hPa 0,0 l/m NW 0,00 h 0 W/m 3,3 km/h (1 Bft)
16.04.2010 04:00 2,7 C 97 % 1015,9 hPa 0,0 l/m NW 0,00 h 0 W/m 2,8 km/h (1 Bft)
16.04.2010 05:00 3,2 C 98 % 1016,0 hPa 0,0 l/m NW 0,00 h 0 W/m 3,6 km/h (1 Bft)
16.04.2010 06:00 4,0 C 98 % 1016,2 hPa 0,0 l/m NW 0,00 h 8 W/m 4,5 km/h (1 Bft)
16.04.2010 07:00 5,0 C 97 % 1016,6 hPa 0,0 l/m O-NO 0,00 h 23 W/m 5,1 km/h (1 Bft)
16.04.2010 08:00 5,6 C 95 % 1016,9 hPa 0,0 l/m O-NO 0,00 h 74 W/m 8,2 km/h (2 Bft)
16.04.2010 09:00 6,5 C 91 % 1017,1 hPa 0,0 l/m O-NO 0,17 h 195 W/m 10,6 km/h (2 Bft)
16.04.2010 10:00 7,4 C 85 % 1017,4 hPa 0,0 l/m NO 0,25 h 285 W/m 12,5 km/h (3 Bft)
16.04.2010 11:00 8,2 C 79 % 1017,6 hPa 0,0 l/m O-NO 0,00 h 253 W/m 15,4 km/h (3 Bft)
16.04.2010 12:00 8,6 C 78 % 1017,6 hPa 0,0 l/m N-NO 0,08 h 307 W/m 14,5 km/h (3 Bft)
16.04.2010 13:00 9,4 C 72 % 1017,6 hPa 0,0 l/m O-NO 0,00 h 335 W/m 15,0 km/h (3 Bft)
16.04.2010 14:00 10,2 C 68 % 1017,7 hPa 0,0 l/m NO 0,33 h 376 W/m 16,1 km/h (3 Bft)
16.04.2010 15:00 10,8 C 65 % 1017,5 hPa 0,0 l/m O-NO 0,33 h 435 W/m 16,5 km/h (3 Bft)
16.04.2010 16:00 10,9 C 64 % 1017,3 hPa 0,0 l/m O-NO 0,08 h 231 W/m 14,6 km/h (3 Bft)
16.04.2010 17:00 10,8 C 65 % 1017,4 hPa 0,0 l/m NO 0,08 h 179 W/m 13,0 km/h (3 Bft)
16.04.2010 18:00 10,5 C 69 % 1017,6 hPa 0,0 l/m NO 0,17 h 128 W/m 14,6 km/h (3 Bft)
16.04.2010 19:00 9,8 C 72 % 1017,7 hPa 0,0 l/m NO 0,00 h 41 W/m 9,8 km/h (2 Bft)
16.04.2010 20:00 7,7 C 80 % 1018,1 hPa 0,0 l/m N-NO 0,08 h 7 W/m 3,7 km/h (1 Bft)
16.04.2010 21:00 6,1 C 87 % 1018,8 hPa 0,0 l/m N-NW 0,00 h 0 W/m 3,3 km/h (1 Bft)
16.04.2010 22:00 6,5 C 88 % 1019,0 hPa 0,0 l/m N-NW 0,00 h 0 W/m 1,3 km/h (1 Bft)
16.04.2010 23:00 6,6 C 88 % 1019,1 hPa 0,0 l/m N-NW 0,00 h 0 W/m 5,9 km/h (2 Bft)
17.04.2010 00:00 6,1 C 89 % 1019,3 hPa 0,0 l/m N 0,00 h 0 W/m 7,8 km/h (2 Bft)
17.04.2010 01:00 6,9 C 85 % 1019,4 hPa 0,0 l/m N-NO 0,00 h 0 W/m 13,4 km/h (3 Bft)
17.04.2010 02:00 7,2 C 79 % 1019,2 hPa 0,0 l/m NO 0,00 h 0 W/m 11,1 km/h (2 Bft)
17.04.2010 03:00 5,6 C 83 % 1019,4 hPa 0,0 l/m N 0,00 h 0 W/m 8,6 km/h (2 Bft)
17.04.2010 04:00 4,3 C 87 % 1019,3 hPa 0,0 l/m N-NO 0,00 h 0 W/m 7,8 km/h (2 Bft)
17.04.2010 05:00 3,5 C 89 % 1019,3 hPa 0,0 l/m N-NW 0,00 h 0 W/m 9,7 km/h (2 Bft)
17.04.2010 06:00 3,2 C 90 % 1019,2 hPa 0,0 l/m N 0,00 h 13 W/m 7,9 km/h (2 Bft)
17.04.2010 07:00 3,4 C 90 % 1019,6 hPa 0,0 l/m N-NO 0,00 h 71 W/m 9,1 km/h (2 Bft)
17.04.2010 08:00 4,8 C 87 % 1019,6 hPa 0,0 l/m NO 1,00 h 212 W/m 10,2 km/h (2 Bft)
17.04.2010 09:00 6,9 C 80 % 1019,5 hPa 0,0 l/m O-NO 1,00 h 368 W/m 11,3 km/h (2 Bft)
17.04.2010 10:00 9,6 C 73 % 1019,2 hPa 0,0 l/m O-NO 1,00 h 527 W/m 13,3 km/h (3 Bft)
17.04.2010 11:00 11,6 C 65 % 1019,1 hPa 0,0 l/m O-NO 1,00 h 651 W/m 16,6 km/h (3 Bft)
17.04.2010 12:00 13,3 C 59 % 1018,6 hPa 0,0 l/m O-NO 1,00 h 704 W/m 19,2 km/h (3 Bft)
17.04.2010 13:00 14,1 C 55 % 1018,1 hPa 0,0 l/m O-NO 0,83 h 664 W/m 20,9 km/h (4 Bft)
17.04.2010 14:00 14,7 C 52 % 1017,6 hPa 0,0 l/m NO 0,83 h 655 W/m 21,3 km/h (4 Bft)
17.04.2010 15:00 15,1 C 49 % 1017,0 hPa 0,0 l/m O-NO 0,92 h 594 W/m 21,3 km/h (4 Bft)
17.04.2010 16:00 15,3 C 49 % 1016,2 hPa 0,0 l/m O-NO 1,00 h 491 W/m 21,3 km/h (4 Bft)
17.04.2010 17:00 15,2 C 47 % 1015,6 hPa 0,0 l/m NO 1,00 h 354 W/m 20,2 km/h (4 Bft)
17.04.2010 18:00 14,6 C 46 % 1015,4 hPa 0,0 l/m O-NO 0,83 h 188 W/m 20,5 km/h (4 Bft)
17.04.2010 19:00 13,4 C 50 % 1015,2 hPa 0,0 l/m O-NO 0,00 h 44 W/m 16,5 km/h (3 Bft)
17.04.2010 20:00 11,4 C 57 % 1015,1 hPa 0,0 l/m O-NO 0,00 h 7 W/m 7,0 km/h (2 Bft)
17.04.2010 21:00 10,3 C 60 % 1015,1 hPa 0,0 l/m O-NO 0,00 h 0 W/m 11,5 km/h (2 Bft)
17.04.2010 22:00 9,8 C 61 % 1014,8 hPa 0,0 l/m O-NO 0,00 h 0 W/m 11,7 km/h (2 Bft)
17.04.2010 23:00 8,9 C 65 % 1014,6 hPa 0,0 l/m NO 0,00 h 0 W/m 10,6 km/h (2 Bft)
18.04.2010 00:00 7,9 C 69 % 1014,1 hPa 0,0 l/m N-NO 0,00 h 0 W/m 8,2 km/h (2 Bft)
18.04.2010 01:00 6,3 C 75 % 1013,7 hPa 0,0 l/m N-NO 0,00 h 0 W/m 6,7 km/h (2 Bft)
18.04.2010 02:00 5,8 C 77 % 1013,1 hPa 0,0 l/m NO 0,00 h 0 W/m 7,1 km/h (2 Bft)
18.04.2010 03:00 4,7 C 81 % 1012,6 hPa 0,0 l/m N-NW 0,00 h 0 W/m 5,9 km/h (2 Bft)
18.04.2010 04:00 4,0 C 81 % 1012,6 hPa 0,0 l/m N-NW 0,00 h 0 W/m 6,4 km/h (2 Bft)
18.04.2010 05:00 3,4 C 80 % 1012,2 hPa 0,0 l/m N 0,00 h 0 W/m 5,3 km/h (1 Bft)
18.04.2010 06:00 3,2 C 80 % 1011,7 hPa 0,0 l/m N-NW 0,00 h 15 W/m 5,3 km/h (1 Bft)
18.04.2010 07:00 3,4 C 81 % 1011,9 hPa 0,0 l/m N-NW 0,17 h 79 W/m 1,9 km/h (1 Bft)
18.04.2010 08:00 4,9 C 76 % 1012,0 hPa 0,0 l/m N 0,67 h 201 W/m 3,5 km/h (1 Bft)
18.04.2010 09:00 6,4 C 72 % 1011,8 hPa 0,0 l/m O-NO 0,50 h 274 W/m 2,9 km/h (1 Bft)
18.04.2010 10:00 8,0 C 69 % 1011,9 hPa 0,0 l/m S-SW 0,33 h 317 W/m 6,3 km/h (2 Bft)
18.04.2010 11:00 9,2 C 70 % 1011,9 hPa 0,0 l/m S 0,08 h 339 W/m 7,6 km/h (2 Bft)
18.04.2010 12:00 10,7 C 65 % 1011,6 hPa 0,0 l/m O-NO 0,92 h 485 W/m 5,7 km/h (1 Bft)
18.04.2010 13:00 11,8 C 62 % 1011,3 hPa 0,0 l/m W-NW 0,17 h 324 W/m 7,8 km/h (2 Bft)
18.04.2010 14:00 12,0 C 62 % 1010,9 hPa 0,0 l/m SW 0,00 h 221 W/m 7,8 km/h (2 Bft)
18.04.2010 15:00 12,2 C 63 % 1010,9 hPa 0,0 l/m S-SW 0,00 h 173 W/m 11,3 km/h (2 Bft)
18.04.2010 16:00 12,3 C 63 % 1010,7 hPa 0,0 l/m S 0,00 h 166 W/m 8,9 km/h (2 Bft)
18.04.2010 17:00 12,7 C 64 % 1010,8 hPa 0,0 l/m S-SW 0,00 h 195 W/m 8,2 km/h (2 Bft)
18.04.2010 18:00 12,6 C 66 % 1011,0 hPa 0,0 l/m SW 0,00 h 118 W/m 8,6 km/h (2 Bft)
18.04.2010 19:00 11,4 C 73 % 1011,1 hPa 0,0 l/m S-SW 0,08 h 36 W/m 13,3 km/h (3 Bft)
18.04.2010 20:00 9,9 C 78 % 1011,7 hPa 0,0 l/m S-SW 0,17 h 11 W/m 9,5 km/h (2 Bft)
18.04.2010 21:00 8,7 C 83 % 1012,2 hPa 0,0 l/m S 0,00 h 0 W/m 8,0 km/h (2 Bft)
18.04.2010 22:00 8,0 C 84 % 1012,3 hPa 0,0 l/m S-SW 0,00 h 0 W/m 7,1 km/h (2 Bft)
18.04.2010 23:00 7,7 C 84 % 1012,2 hPa 0,0 l/m SW 0,00 h 0 W/m 9,4 km/h (2 Bft)
Min-Datum _ 13.04.10 17.04.10 18.04.10 - - - - 14.04.10
_ Min-Zeit 04:30 18:15 16:15 - - - - 01:50
Minimum _ 0,1 C 44 % 1010,7 hPa - - - - 0,0 km/h (0 Bft)
Max-Datum _ 17.04.10 14.04.10 17.04.10 14.04.10 - 12.04.10 13.04.10 12.04.10
_ Max-Zeit 16:00 13:20 07:40 12:25 - 13:10 12:25 15:20
Maximum _ 15,6 C 100 % 1019,8 hPa 5,8 l/m - 0,08 h 1062 W/m 33,8 km/h
O-NO (5 Bft)
Durchschnitt _ 6,4 C 79 % 1014,5 hPa #13,4 l/m NO #25:00 h 224 W/m 10,1 km/h (2 Bft)